sensor_id;sensor_type;location;lat;lon;timestamp;temperature;humidity
1405;DHT22;697;51.114;6.542;2023-10-31T00:01:45;12.60;99.90
1405;DHT22;697;51.114;6.542;2023-10-31T00:04:12;12.60;99.90
1405;DHT22;697;51.114;6.542;2023-10-31T00:06:40;12.60;99.90
1405;DHT22;697;51.114;6.542;2023-10-31T00:09:06;12.50;99.90
1405;DHT22;697;51.114;6.542;2023-10-31T00:11:33;12.50;99.90
1405;DHT22;697;51.114;6.542;2023-10-31T00:14:00;12.60;99.90
1405;DHT22;697;51.114;6.542;2023-10-31T00:16:26;12.60;99.90
1405;DHT22;697;51.114;6.542;2023-10-31T00:18:53;12.60;99.90
1405;DHT22;697;51.114;6.542;2023-10-31T00:21:20;12.50;99.90
1405;DHT22;697;51.114;6.542;2023-10-31T00:23:48;12.40;99.90
1405;DHT22;697;51.114;6.542;2023-10-31T00:26:15;12.30;99.90
1405;DHT22;697;51.114;6.542;2023-10-31T00:28:42;12.30;99.90
1405;DHT22;697;51.114;6.542;2023-10-31T00:31:09;12.30;99.90
1405;DHT22;697;51.114;6.542;2023-10-31T00:33:36;12.20;99.90
1405;DHT22;697;51.114;6.542;2023-10-31T00:36:04;12.10;99.90
1405;DHT22;697;51.114;6.542;2023-10-31T00:38:31;12.10;99.90
1405;DHT22;697;51.114;6.542;2023-10-31T00:40:59;12.10;99.90
1405;DHT22;697;51.114;6.542;2023-10-31T00:43:26;12.10;99.90
1405;DHT22;697;51.114;6.542;2023-10-31T00:45:52;12.20;99.90
1405;DHT22;697;51.114;6.542;2023-10-31T00:48:19;12.20;99.90
1405;DHT22;697;51.114;6.542;2023-10-31T00:50:46;12.20;99.90
1405;DHT22;697;51.114;6.542;2023-10-31T00:53:13;12.20;99.90
1405;DHT22;697;51.114;6.542;2023-10-31T00:55:40;12.20;99.90
1405;DHT22;697;51.114;6.542;2023-10-31T00:58:08;12.30;99.90
1405;DHT22;697;51.114;6.542;2023-10-31T01:00:35;12.30;99.90
1405;DHT22;697;51.114;6.542;2023-10-31T01:03:02;12.30;99.90
1405;DHT22;697;51.114;6.542;2023-10-31T01:05:29;12.30;99.90
1405;DHT22;697;51.114;6.542;2023-10-31T01:07:56;12.40;99.90
1405;DHT22;697;51.114;6.542;2023-10-31T01:10:22;12.40;99.90
1405;DHT22;697;51.114;6.542;2023-10-31T01:12:49;12.30;99.90
1405;DHT22;697;51.114;6.542;2023-10-31T01:15:17;12.40;99.90
1405;DHT22;697;51.114;6.542;2023-10-31T01:17:44;12.30;99.90
1405;DHT22;697;51.114;6.542;2023-10-31T01:20:11;12.20;99.90
1405;DHT22;697;51.114;6.542;2023-10-31T01:22:38;12.20;99.90
1405;DHT22;697;51.114;6.542;2023-10-31T01:25:05;12.20;99.90
1405;DHT22;697;51.114;6.542;2023-10-31T01:27:32;12.20;99.90
1405;DHT22;697;51.114;6.542;2023-10-31T01:29:59;12.20;99.90
1405;DHT22;697;51.114;6.542;2023-10-31T01:32:27;12.20;99.90
1405;DHT22;697;51.114;6.542;2023-10-31T01:34:53;12.20;99.90
1405;DHT22;697;51.114;6.542;2023-10-31T01:37:20;12.20;99.90
1405;DHT22;697;51.114;6.542;2023-10-31T01:39:47;12.20;99.90
1405;DHT22;697;51.114;6.542;2023-10-31T01:42:14;12.10;99.90
1405;DHT22;697;51.114;6.542;2023-10-31T01:44:41;12.20;99.90
1405;DHT22;697;51.114;6.542;2023-10-31T01:47:08;12.20;99.90
1405;DHT22;697;51.114;6.542;2023-10-31T01:49:36;12.20;99.90
1405;DHT22;697;51.114;6.542;2023-10-31T01:52:03;12.20;99.90
1405;DHT22;697;51.114;6.542;2023-10-31T01:54:31;12.20;99.90
1405;DHT22;697;51.114;6.542;2023-10-31T01:56:59;12.20;99.90
1405;DHT22;697;51.114;6.542;2023-10-31T01:59:27;12.10;99.90
1405;DHT22;697;51.114;6.542;2023-10-31T02:01:54;12.10;99.90
1405;DHT22;697;51.114;6.542;2023-10-31T02:04:22;12.00;99.90
1405;DHT22;697;51.114;6.542;2023-10-31T02:06:50;12.00;99.90
1405;DHT22;697;51.114;6.542;2023-10-31T02:09:16;12.00;99.90
1405;DHT22;697;51.114;6.542;2023-10-31T02:11:43;12.00;99.90
1405;DHT22;697;51.114;6.542;2023-10-31T02:14:10;12.10;99.90
1405;DHT22;697;51.114;6.542;2023-10-31T02:16:36;12.10;99.90
1405;DHT22;697;51.114;6.542;2023-10-31T02:19:03;12.10;99.90
1405;DHT22;697;51.114;6.542;2023-10-31T02:21:31;12.10;99.90
1405;DHT22;697;51.114;6.542;2023-10-31T02:24:00;12.10;99.90
1405;DHT22;697;51.114;6.542;2023-10-31T02:26:30;12.10;99.90
1405;DHT22;697;51.114;6.542;2023-10-31T02:28:58;12.00;99.90
1405;DHT22;697;51.114;6.542;2023-10-31T02:31:24;12.00;99.90
1405;DHT22;697;51.114;6.542;2023-10-31T02:33:51;12.00;99.90
1405;DHT22;697;51.114;6.542;2023-10-31T02:36:18;12.10;99.90
1405;DHT22;697;51.114;6.542;2023-10-31T02:38:45;12.00;99.90
1405;DHT22;697;51.114;6.542;2023-10-31T02:41:14;12.00;99.90
1405;DHT22;697;51.114;6.542;2023-10-31T02:43:41;12.00;99.90
1405;DHT22;697;51.114;6.542;2023-10-31T02:46:08;12.00;99.90
1405;DHT22;697;51.114;6.542;2023-10-31T02:48:36;12.00;99.90
1405;DHT22;697;51.114;6.542;2023-10-31T02:51:05;12.00;99.90
1405;DHT22;697;51.114;6.542;2023-10-31T02:53:31;12.00;99.90
1405;DHT22;697;51.114;6.542;2023-10-31T02:55:58;12.00;99.90
1405;DHT22;697;51.114;6.542;2023-10-31T02:58:26;12.00;99.90
1405;DHT22;697;51.114;6.542;2023-10-31T03:00:53;12.00;99.90
1405;DHT22;697;51.114;6.542;2023-10-31T03:03:19;12.00;99.90
1405;DHT22;697;51.114;6.542;2023-10-31T03:05:46;12.00;99.90
1405;DHT22;697;51.114;6.542;2023-10-31T03:08:13;11.90;99.90
1405;DHT22;697;51.114;6.542;2023-10-31T03:10:41;11.90;99.90
1405;DHT22;697;51.114;6.542;2023-10-31T03:13:08;11.90;99.90
1405;DHT22;697;51.114;6.542;2023-10-31T03:15:36;12.00;99.90
1405;DHT22;697;51.114;6.542;2023-10-31T03:18:02;12.00;99.90
1405;DHT22;697;51.114;6.542;2023-10-31T03:20:29;12.00;99.90
1405;DHT22;697;51.114;6.542;2023-10-31T03:22:56;12.00;99.90
1405;DHT22;697;51.114;6.542;2023-10-31T03:25:23;12.00;99.90
1405;DHT22;697;51.114;6.542;2023-10-31T03:27:49;12.00;99.90
1405;DHT22;697;51.114;6.542;2023-10-31T03:30:16;12.10;99.90
1405;DHT22;697;51.114;6.542;2023-10-31T03:32:44;12.10;99.90
1405;DHT22;697;51.114;6.542;2023-10-31T03:35:11;12.10;99.90
1405;DHT22;697;51.114;6.542;2023-10-31T03:37:38;12.20;99.90
1405;DHT22;697;51.114;6.542;2023-10-31T03:40:08;12.20;99.90
1405;DHT22;697;51.114;6.542;2023-10-31T03:42:34;12.20;99.90
1405;DHT22;697;51.114;6.542;2023-10-31T03:45:01;12.20;99.90
1405;DHT22;697;51.114;6.542;2023-10-31T03:47:28;12.20;99.90
1405;DHT22;697;51.114;6.542;2023-10-31T03:49:56;12.30;99.90
1405;DHT22;697;51.114;6.542;2023-10-31T03:52:23;12.30;99.90
1405;DHT22;697;51.114;6.542;2023-10-31T03:54:49;12.30;99.90
1405;DHT22;697;51.114;6.542;2023-10-31T03:57:16;12.20;99.90
1405;DHT22;697;51.114;6.542;2023-10-31T03:59:43;12.10;99.90
1405;DHT22;697;51.114;6.542;2023-10-31T04:02:10;12.10;99.90
1405;DHT22;697;51.114;6.542;2023-10-31T04:04:37;12.10;99.90
1405;DHT22;697;51.114;6.542;2023-10-31T04:07:05;12.10;99.90
1405;DHT22;697;51.114;6.542;2023-10-31T04:09:32;12.20;99.90
1405;DHT22;697;51.114;6.542;2023-10-31T04:11:59;12.20;99.90
1405;DHT22;697;51.114;6.542;2023-10-31T04:14:26;12.10;99.90
1405;DHT22;697;51.114;6.542;2023-10-31T04:16:52;12.10;99.90
1405;DHT22;697;51.114;6.542;2023-10-31T04:19:19;12.10;99.90
1405;DHT22;697;51.114;6.542;2023-10-31T04:21:46;12.10;99.90
1405;DHT22;697;51.114;6.542;2023-10-31T04:24:14;12.10;99.90
1405;DHT22;697;51.114;6.542;2023-10-31T04:26:41;12.10;99.90
1405;DHT22;697;51.114;6.542;2023-10-31T04:29:07;12.10;99.90
1405;DHT22;697;51.114;6.542;2023-10-31T04:31:34;12.10;99.90
1405;DHT22;697;51.114;6.542;2023-10-31T04:34:01;12.10;99.90
1405;DHT22;697;51.114;6.542;2023-10-31T04:36:27;12.10;99.90
1405;DHT22;697;51.114;6.542;2023-10-31T04:38:54;12.10;99.90
1405;DHT22;697;51.114;6.542;2023-10-31T04:41:21;12.20;99.90
1405;DHT22;697;51.114;6.542;2023-10-31T04:43:48;12.20;99.90
1405;DHT22;697;51.114;6.542;2023-10-31T04:46:15;12.20;99.90
1405;DHT22;697;51.114;6.542;2023-10-31T04:48:42;12.10;99.90
1405;DHT22;697;51.114;6.542;2023-10-31T04:51:08;12.20;99.90
1405;DHT22;697;51.114;6.542;2023-10-31T04:53:35;12.20;99.90
1405;DHT22;697;51.114;6.542;2023-10-31T04:56:02;12.20;99.90
1405;DHT22;697;51.114;6.542;2023-10-31T04:58:30;12.10;99.90
1405;DHT22;697;51.114;6.542;2023-10-31T05:00:57;12.10;99.90
1405;DHT22;697;51.114;6.542;2023-10-31T05:03:23;12.10;99.90
1405;DHT22;697;51.114;6.542;2023-10-31T05:05:50;12.10;99.90
1405;DHT22;697;51.114;6.542;2023-10-31T05:08:17;12.10;99.90
1405;DHT22;697;51.114;6.542;2023-10-31T05:10:44;12.10;99.90
1405;DHT22;697;51.114;6.542;2023-10-31T05:13:12;12.10;99.90
1405;DHT22;697;51.114;6.542;2023-10-31T05:15:41;12.10;99.90
1405;DHT22;697;51.114;6.542;2023-10-31T05:18:07;12.10;99.90
1405;DHT22;697;51.114;6.542;2023-10-31T05:20:34;12.20;99.90
1405;DHT22;697;51.114;6.542;2023-10-31T05:23:01;12.30;99.90
1405;DHT22;697;51.114;6.542;2023-10-31T05:25:27;12.30;99.90
1405;DHT22;697;51.114;6.542;2023-10-31T05:27:54;12.30;99.90
1405;DHT22;697;51.114;6.542;2023-10-31T05:30:21;12.30;99.90
1405;DHT22;697;51.114;6.542;2023-10-31T05:32:50;12.30;99.90
1405;DHT22;697;51.114;6.542;2023-10-31T05:35:16;12.30;99.90
1405;DHT22;697;51.114;6.542;2023-10-31T05:37:43;12.20;99.90
1405;DHT22;697;51.114;6.542;2023-10-31T05:40:11;12.30;99.90
1405;DHT22;697;51.114;6.542;2023-10-31T05:42:38;12.20;99.90
1405;DHT22;697;51.114;6.542;2023-10-31T05:45:05;12.10;99.90
1405;DHT22;697;51.114;6.542;2023-10-31T05:47:32;12.10;99.90
1405;DHT22;697;51.114;6.542;2023-10-31T05:50:00;12.10;99.90
1405;DHT22;697;51.114;6.542;2023-10-31T05:52:28;12.10;99.90
1405;DHT22;697;51.114;6.542;2023-10-31T05:54:55;12.10;99.90
1405;DHT22;697;51.114;6.542;2023-10-31T05:57:21;12.10;99.90
1405;DHT22;697;51.114;6.542;2023-10-31T05:59:48;12.10;99.90
1405;DHT22;697;51.114;6.542;2023-10-31T06:02:15;12.10;99.90
1405;DHT22;697;51.114;6.542;2023-10-31T06:04:41;12.20;99.90
1405;DHT22;697;51.114;6.542;2023-10-31T06:07:10;12.20;99.90
1405;DHT22;697;51.114;6.542;2023-10-31T06:09:37;12.10;99.90
1405;DHT22;697;51.114;6.542;2023-10-31T06:12:04;12.10;99.90
1405;DHT22;697;51.114;6.542;2023-10-31T06:14:31;12.10;99.90
1405;DHT22;697;51.114;6.542;2023-10-31T06:16:58;12.10;99.90
1405;DHT22;697;51.114;6.542;2023-10-31T06:19:26;12.10;99.90
1405;DHT22;697;51.114;6.542;2023-10-31T06:21:53;12.10;99.90
1405;DHT22;697;51.114;6.542;2023-10-31T06:24:21;12.10;99.90
1405;DHT22;697;51.114;6.542;2023-10-31T06:26:48;12.10;99.90
1405;DHT22;697;51.114;6.542;2023-10-31T06:29:14;12.10;99.90
1405;DHT22;697;51.114;6.542;2023-10-31T06:31:41;12.10;99.90
1405;DHT22;697;51.114;6.542;2023-10-31T06:34:08;12.10;99.90
1405;DHT22;697;51.114;6.542;2023-10-31T06:36:34;12.10;99.90
1405;DHT22;697;51.114;6.542;2023-10-31T06:39:01;12.10;99.90
1405;DHT22;697;51.114;6.542;2023-10-31T06:41:29;12.10;99.90
1405;DHT22;697;51.114;6.542;2023-10-31T06:43:56;12.10;99.90
1405;DHT22;697;51.114;6.542;2023-10-31T06:46:23;12.10;99.90
1405;DHT22;697;51.114;6.542;2023-10-31T06:48:49;12.10;99.90
1405;DHT22;697;51.114;6.542;2023-10-31T06:51:17;12.10;99.90
1405;DHT22;697;51.114;6.542;2023-10-31T06:53:43;12.10;99.90
1405;DHT22;697;51.114;6.542;2023-10-31T06:56:10;12.10;99.90
1405;DHT22;697;51.114;6.542;2023-10-31T06:58:38;12.10;99.90
1405;DHT22;697;51.114;6.542;2023-10-31T07:01:05;12.00;99.90
1405;DHT22;697;51.114;6.542;2023-10-31T07:03:32;11.90;99.90
1405;DHT22;697;51.114;6.542;2023-10-31T07:05:58;11.90;99.90
1405;DHT22;697;51.114;6.542;2023-10-31T07:08:25;11.80;99.90
1405;DHT22;697;51.114;6.542;2023-10-31T07:10:52;11.90;99.90
1405;DHT22;697;51.114;6.542;2023-10-31T07:13:18;11.80;99.90
1405;DHT22;697;51.114;6.542;2023-10-31T07:15:46;11.80;99.90
1405;DHT22;697;51.114;6.542;2023-10-31T07:18:13;11.80;99.90
1405;DHT22;697;51.114;6.542;2023-10-31T07:20:40;11.80;99.90
1405;DHT22;697;51.114;6.542;2023-10-31T07:23:07;11.80;99.90
1405;DHT22;697;51.114;6.542;2023-10-31T07:25:34;11.80;99.90
1405;DHT22;697;51.114;6.542;2023-10-31T07:28:01;11.90;99.90
1405;DHT22;697;51.114;6.542;2023-10-31T07:30:27;12.00;99.90
1405;DHT22;697;51.114;6.542;2023-10-31T07:32:56;11.90;99.90
1405;DHT22;697;51.114;6.542;2023-10-31T07:35:23;11.90;99.90
1405;DHT22;697;51.114;6.542;2023-10-31T07:37:50;11.90;99.90
1405;DHT22;697;51.114;6.542;2023-10-31T07:40:17;11.90;99.90
1405;DHT22;697;51.114;6.542;2023-10-31T07:42:43;12.00;99.90
1405;DHT22;697;51.114;6.542;2023-10-31T07:45:10;12.10;99.90
1405;DHT22;697;51.114;6.542;2023-10-31T07:47:37;12.10;99.90
1405;DHT22;697;51.114;6.542;2023-10-31T07:50:05;12.10;99.90
1405;DHT22;697;51.114;6.542;2023-10-31T07:52:32;12.10;99.90
1405;DHT22;697;51.114;6.542;2023-10-31T07:54:59;12.10;99.90
1405;DHT22;697;51.114;6.542;2023-10-31T07:57:25;12.10;99.90
1405;DHT22;697;51.114;6.542;2023-10-31T07:59:52;12.10;99.90
1405;DHT22;697;51.114;6.542;2023-10-31T08:02:19;12.20;99.90
1405;DHT22;697;51.114;6.542;2023-10-31T08:04:45;12.20;99.90
1405;DHT22;697;51.114;6.542;2023-10-31T08:07:13;12.40;99.90
1405;DHT22;697;51.114;6.542;2023-10-31T08:09:40;12.20;99.90
1405;DHT22;697;51.114;6.542;2023-10-31T08:12:07;12.30;99.90
1405;DHT22;697;51.114;6.542;2023-10-31T08:14:34;12.30;99.90
1405;DHT22;697;51.114;6.542;2023-10-31T08:17:00;12.30;99.90
1405;DHT22;697;51.114;6.542;2023-10-31T08:19:27;12.40;99.90
1405;DHT22;697;51.114;6.542;2023-10-31T08:21:54;12.40;99.90
1405;DHT22;697;51.114;6.542;2023-10-31T08:24:21;12.40;99.90
1405;DHT22;697;51.114;6.542;2023-10-31T08:26:48;12.40;99.90
1405;DHT22;697;51.114;6.542;2023-10-31T08:29:15;12.40;99.90
1405;DHT22;697;51.114;6.542;2023-10-31T08:31:42;12.40;99.90
1405;DHT22;697;51.114;6.542;2023-10-31T08:34:08;12.30;99.90
1405;DHT22;697;51.114;6.542;2023-10-31T08:36:35;12.40;99.90
1405;DHT22;697;51.114;6.542;2023-10-31T08:39:02;12.50;99.90
1405;DHT22;697;51.114;6.542;2023-10-31T08:41:31;12.60;99.90
1405;DHT22;697;51.114;6.542;2023-10-31T08:43:57;12.60;99.90
1405;DHT22;697;51.114;6.542;2023-10-31T08:46:25;12.60;99.90
1405;DHT22;697;51.114;6.542;2023-10-31T08:48:51;12.50;99.90
1405;DHT22;697;51.114;6.542;2023-10-31T08:51:18;12.50;99.90
1405;DHT22;697;51.114;6.542;2023-10-31T08:53:45;12.50;99.90
1405;DHT22;697;51.114;6.542;2023-10-31T08:56:11;12.50;99.90
1405;DHT22;697;51.114;6.542;2023-10-31T08:58:39;12.60;99.90
1405;DHT22;697;51.114;6.542;2023-10-31T09:01:06;12.70;99.90
1405;DHT22;697;51.114;6.542;2023-10-31T09:03:33;12.90;99.90
1405;DHT22;697;51.114;6.542;2023-10-31T09:06:00;12.90;99.90
1405;DHT22;697;51.114;6.542;2023-10-31T09:08:27;13.00;99.90
1405;DHT22;697;51.114;6.542;2023-10-31T09:10:54;13.00;99.90
1405;DHT22;697;51.114;6.542;2023-10-31T09:13:20;13.00;99.90
1405;DHT22;697;51.114;6.542;2023-10-31T09:15:48;13.10;99.90
1405;DHT22;697;51.114;6.542;2023-10-31T09:18:16;13.00;99.90
1405;DHT22;697;51.114;6.542;2023-10-31T09:20:43;13.00;99.90
1405;DHT22;697;51.114;6.542;2023-10-31T09:23:09;13.00;99.90
1405;DHT22;697;51.114;6.542;2023-10-31T09:25:36;13.20;99.90
1405;DHT22;697;51.114;6.542;2023-10-31T09:28:03;13.30;99.90
1405;DHT22;697;51.114;6.542;2023-10-31T09:30:29;13.40;99.90
1405;DHT22;697;51.114;6.542;2023-10-31T09:32:58;13.40;99.90
1405;DHT22;697;51.114;6.542;2023-10-31T09:35:25;13.50;99.80
1405;DHT22;697;51.114;6.542;2023-10-31T09:37:51;13.60;99.70
1405;DHT22;697;51.114;6.542;2023-10-31T09:40:18;13.70;99.90
1405;DHT22;697;51.114;6.542;2023-10-31T09:42:46;13.90;99.20
1405;DHT22;697;51.114;6.542;2023-10-31T09:45:13;14.10;98.50
1405;DHT22;697;51.114;6.542;2023-10-31T09:47:40;14.10;98.00
1405;DHT22;697;51.114;6.542;2023-10-31T09:50:10;14.20;98.40
1405;DHT22;697;51.114;6.542;2023-10-31T09:52:37;14.20;99.20
1405;DHT22;697;51.114;6.542;2023-10-31T09:55:05;14.30;98.50
1405;DHT22;697;51.114;6.542;2023-10-31T09:57:32;14.30;98.00
1405;DHT22;697;51.114;6.542;2023-10-31T09:59:59;14.40;97.70
1405;DHT22;697;51.114;6.542;2023-10-31T10:02:25;14.40;97.70
1405;DHT22;697;51.114;6.542;2023-10-31T10:04:52;14.40;97.40
1405;DHT22;697;51.114;6.542;2023-10-31T10:07:20;14.30;96.80
1405;DHT22;697;51.114;6.542;2023-10-31T10:09:47;14.20;97.10
1405;DHT22;697;51.114;6.542;2023-10-31T10:12:15;14.10;97.40
1405;DHT22;697;51.114;6.542;2023-10-31T10:14:45;14.10;97.30
1405;DHT22;697;51.114;6.542;2023-10-31T10:17:16;14.10;97.10
1405;DHT22;697;51.114;6.542;2023-10-31T10:19:43;14.20;97.30
1405;DHT22;697;51.114;6.542;2023-10-31T10:22:10;14.40;97.20
1405;DHT22;697;51.114;6.542;2023-10-31T10:24:41;14.30;96.90
1405;DHT22;697;51.114;6.542;2023-10-31T10:27:08;14.30;96.30
1405;DHT22;697;51.114;6.542;2023-10-31T10:29:35;14.30;96.30
1405;DHT22;697;51.114;6.542;2023-10-31T10:32:05;14.30;95.90
1405;DHT22;697;51.114;6.542;2023-10-31T10:34:33;14.30;96.30
1405;DHT22;697;51.114;6.542;2023-10-31T10:37:01;14.20;95.90
1405;DHT22;697;51.114;6.542;2023-10-31T10:39:29;14.40;96.10
1405;DHT22;697;51.114;6.542;2023-10-31T10:42:01;14.40;95.00
1405;DHT22;697;51.114;6.542;2023-10-31T10:44:33;14.40;94.80
1405;DHT22;697;51.114;6.542;2023-10-31T10:47:02;14.40;94.90
1405;DHT22;697;51.114;6.542;2023-10-31T10:49:33;14.30;94.30
1405;DHT22;697;51.114;6.542;2023-10-31T10:52:12;14.50;94.70
1405;DHT22;697;51.114;6.542;2023-10-31T10:54:44;14.60;94.90
1405;DHT22;697;51.114;6.542;2023-10-31T10:57:15;14.80;94.80
1405;DHT22;697;51.114;6.542;2023-10-31T10:59:48;14.80;94.10
1405;DHT22;697;51.114;6.542;2023-10-31T11:02:17;15.00;93.80
1405;DHT22;697;51.114;6.542;2023-10-31T11:04:45;15.60;92.70
1405;DHT22;697;51.114;6.542;2023-10-31T11:07:12;16.00;91.80
1405;DHT22;697;51.114;6.542;2023-10-31T11:09:39;16.50;90.50
1405;DHT22;697;51.114;6.542;2023-10-31T11:12:10;16.80;88.20
1405;DHT22;697;51.114;6.542;2023-10-31T11:14:39;17.30;85.90
1405;DHT22;697;51.114;6.542;2023-10-31T11:17:14;17.80;83.20
1405;DHT22;697;51.114;6.542;2023-10-31T11:19:43;18.10;81.70
1405;DHT22;697;51.114;6.542;2023-10-31T11:22:10;18.50;82.10
1405;DHT22;697;51.114;6.542;2023-10-31T11:24:37;18.80;78.70
1405;DHT22;697;51.114;6.542;2023-10-31T11:27:06;19.30;76.90
1405;DHT22;697;51.114;6.542;2023-10-31T11:29:33;19.50;73.50
1405;DHT22;697;51.114;6.542;2023-10-31T11:32:03;19.60;72.90
1405;DHT22;697;51.114;6.542;2023-10-31T11:34:30;19.60;72.70
1405;DHT22;697;51.114;6.542;2023-10-31T11:37:18;19.60;71.60
1405;DHT22;697;51.114;6.542;2023-10-31T11:40:15;19.20;74.00
1405;DHT22;697;51.114;6.542;2023-10-31T11:42:42;18.70;74.30
1405;DHT22;697;51.114;6.542;2023-10-31T11:45:09;18.40;74.60
1405;DHT22;697;51.114;6.542;2023-10-31T11:47:47;17.90;76.30
1405;DHT22;697;51.114;6.542;2023-10-31T11:50:14;17.40;79.90
1405;DHT22;697;51.114;6.542;2023-10-31T11:52:41;17.10;79.90
1405;DHT22;697;51.114;6.542;2023-10-31T11:55:09;16.70;82.00
1405;DHT22;697;51.114;6.542;2023-10-31T11:57:36;16.60;84.20
1405;DHT22;697;51.114;6.542;2023-10-31T12:00:04;16.40;83.90
1405;DHT22;697;51.114;6.542;2023-10-31T12:02:31;16.30;86.10
1405;DHT22;697;51.114;6.542;2023-10-31T12:05:09;16.30;87.10
1405;DHT22;697;51.114;6.542;2023-10-31T12:07:43;16.30;87.10
1405;DHT22;697;51.114;6.542;2023-10-31T12:10:10;16.30;88.00
1405;DHT22;697;51.114;6.542;2023-10-31T12:12:37;16.30;88.10
1405;DHT22;697;51.114;6.542;2023-10-31T12:15:07;16.30;87.90
1405;DHT22;697;51.114;6.542;2023-10-31T12:17:34;16.30;88.40
1405;DHT22;697;51.114;6.542;2023-10-31T12:20:03;16.30;87.80
1405;DHT22;697;51.114;6.542;2023-10-31T12:22:32;16.50;87.10
1405;DHT22;697;51.114;6.542;2023-10-31T12:25:01;16.70;87.20
1405;DHT22;697;51.114;6.542;2023-10-31T12:27:42;17.00;87.30
1405;DHT22;697;51.114;6.542;2023-10-31T12:30:10;17.40;86.30
1405;DHT22;697;51.114;6.542;2023-10-31T12:32:37;17.60;83.10
1405;DHT22;697;51.114;6.542;2023-10-31T12:35:04;17.70;79.40
1405;DHT22;697;51.114;6.542;2023-10-31T12:37:33;18.00;78.40
1405;DHT22;697;51.114;6.542;2023-10-31T12:40:00;18.50;78.40
1405;DHT22;697;51.114;6.542;2023-10-31T12:42:30;18.60;75.00
1405;DHT22;697;51.114;6.542;2023-10-31T12:44:58;18.50;75.80
1405;DHT22;697;51.114;6.542;2023-10-31T12:47:25;18.70;74.30
1405;DHT22;697;51.114;6.542;2023-10-31T12:50:06;18.60;71.70
1405;DHT22;697;51.114;6.542;2023-10-31T12:52:47;18.20;73.20
1405;DHT22;697;51.114;6.542;2023-10-31T12:55:15;17.70;75.30
1405;DHT22;697;51.114;6.542;2023-10-31T12:57:41;17.80;75.70
1405;DHT22;697;51.114;6.542;2023-10-31T13:00:09;18.00;76.60
1405;DHT22;697;51.114;6.542;2023-10-31T13:02:38;18.50;74.40
1405;DHT22;697;51.114;6.542;2023-10-31T13:05:10;19.20;72.30
1405;DHT22;697;51.114;6.542;2023-10-31T13:07:37;19.80;69.20
1405;DHT22;697;51.114;6.542;2023-10-31T13:10:07;20.20;67.30
1405;DHT22;697;51.114;6.542;2023-10-31T13:12:35;20.50;63.40
1405;DHT22;697;51.114;6.542;2023-10-31T13:15:02;20.70;63.70
1405;DHT22;697;51.114;6.542;2023-10-31T13:17:29;20.80;63.30
1405;DHT22;697;51.114;6.542;2023-10-31T13:19:56;20.80;61.40
1405;DHT22;697;51.114;6.542;2023-10-31T13:22:23;21.00;62.40
1405;DHT22;697;51.114;6.542;2023-10-31T13:24:50;21.30;61.70
1405;DHT22;697;51.114;6.542;2023-10-31T13:27:18;21.30;60.80
1405;DHT22;697;51.114;6.542;2023-10-31T13:29:45;21.40;61.90
1405;DHT22;697;51.114;6.542;2023-10-31T13:32:15;21.60;60.40
1405;DHT22;697;51.114;6.542;2023-10-31T13:34:42;21.90;59.20
1405;DHT22;697;51.114;6.542;2023-10-31T13:37:08;21.90;59.00
1405;DHT22;697;51.114;6.542;2023-10-31T13:39:35;21.50;58.80
1405;DHT22;697;51.114;6.542;2023-10-31T13:42:02;20.80;59.30
1405;DHT22;697;51.114;6.542;2023-10-31T13:44:30;20.10;62.20
1405;DHT22;697;51.114;6.542;2023-10-31T13:46:57;20.10;63.40
1405;DHT22;697;51.114;6.542;2023-10-31T13:49:23;20.50;63.30
1405;DHT22;697;51.114;6.542;2023-10-31T13:51:50;20.90;62.40
1405;DHT22;697;51.114;6.542;2023-10-31T13:54:17;21.20;60.30
1405;DHT22;697;51.114;6.542;2023-10-31T13:56:44;21.60;59.70
1405;DHT22;697;51.114;6.542;2023-10-31T13:59:12;21.60;57.70
1405;DHT22;697;51.114;6.542;2023-10-31T14:01:40;21.30;57.10
1405;DHT22;697;51.114;6.542;2023-10-31T14:04:07;21.10;58.00
1405;DHT22;697;51.114;6.542;2023-10-31T14:06:34;21.10;58.30
1405;DHT22;697;51.114;6.542;2023-10-31T14:09:01;21.00;59.40
1405;DHT22;697;51.114;6.542;2023-10-31T14:11:30;21.10;59.50
1405;DHT22;697;51.114;6.542;2023-10-31T14:13:57;20.70;58.70
1405;DHT22;697;51.114;6.542;2023-10-31T14:16:28;20.20;60.30
1405;DHT22;697;51.114;6.542;2023-10-31T14:18:56;20.00;61.80
1405;DHT22;697;51.114;6.542;2023-10-31T14:21:23;19.80;61.50
1405;DHT22;697;51.114;6.542;2023-10-31T14:23:51;19.40;61.60
1405;DHT22;697;51.114;6.542;2023-10-31T14:26:19;19.10;63.80
1405;DHT22;697;51.114;6.542;2023-10-31T14:28:46;18.70;65.40
1405;DHT22;697;51.114;6.542;2023-10-31T14:31:13;18.30;68.00
1405;DHT22;697;51.114;6.542;2023-10-31T14:33:39;18.00;69.00
1405;DHT22;697;51.114;6.542;2023-10-31T14:36:09;17.70;71.10
1405;DHT22;697;51.114;6.542;2023-10-31T14:38:38;17.20;72.10
1405;DHT22;697;51.114;6.542;2023-10-31T14:41:05;17.00;74.90
1405;DHT22;697;51.114;6.542;2023-10-31T14:43:32;17.00;76.50
1405;DHT22;697;51.114;6.542;2023-10-31T14:46:00;16.80;76.70
1405;DHT22;697;51.114;6.542;2023-10-31T14:48:26;16.70;77.80
1405;DHT22;697;51.114;6.542;2023-10-31T14:50:54;16.50;78.50
1405;DHT22;697;51.114;6.542;2023-10-31T14:53:23;16.50;79.80
1405;DHT22;697;51.114;6.542;2023-10-31T14:55:50;16.50;81.30
1405;DHT22;697;51.114;6.542;2023-10-31T14:58:17;16.40;81.60
1405;DHT22;697;51.114;6.542;2023-10-31T15:00:44;16.30;82.30
1405;DHT22;697;51.114;6.542;2023-10-31T15:03:11;16.00;83.50
1405;DHT22;697;51.114;6.542;2023-10-31T15:05:37;15.90;84.30
1405;DHT22;697;51.114;6.542;2023-10-31T15:08:04;15.70;86.30
1405;DHT22;697;51.114;6.542;2023-10-31T15:10:33;15.60;87.60
1405;DHT22;697;51.114;6.542;2023-10-31T15:13:00;15.50;88.50
1405;DHT22;697;51.114;6.542;2023-10-31T15:15:27;15.40;89.40
1405;DHT22;697;51.114;6.542;2023-10-31T15:17:54;15.40;90.10
1405;DHT22;697;51.114;6.542;2023-10-31T15:20:21;15.40;90.40
1405;DHT22;697;51.114;6.542;2023-10-31T15:22:47;15.30;90.70
1405;DHT22;697;51.114;6.542;2023-10-31T15:25:14;15.30;91.30
1405;DHT22;697;51.114;6.542;2023-10-31T15:27:42;15.30;91.60
1405;DHT22;697;51.114;6.542;2023-10-31T15:30:10;15.30;92.20
1405;DHT22;697;51.114;6.542;2023-10-31T15:32:38;15.20;92.40
1405;DHT22;697;51.114;6.542;2023-10-31T15:35:05;15.10;93.00
1405;DHT22;697;51.114;6.542;2023-10-31T15:37:32;15.00;92.90
1405;DHT22;697;51.114;6.542;2023-10-31T15:39:59;15.00;94.20
1405;DHT22;697;51.114;6.542;2023-10-31T15:42:26;14.90;95.60
1405;DHT22;697;51.114;6.542;2023-10-31T15:44:55;14.90;96.10
1405;DHT22;697;51.114;6.542;2023-10-31T15:47:22;14.70;96.60
1405;DHT22;697;51.114;6.542;2023-10-31T15:49:49;14.50;97.60
1405;DHT22;697;51.114;6.542;2023-10-31T15:52:15;14.30;98.50
1405;DHT22;697;51.114;6.542;2023-10-31T15:54:42;14.20;99.10
1405;DHT22;697;51.114;6.542;2023-10-31T15:57:09;14.20;99.80
1405;DHT22;697;51.114;6.542;2023-10-31T15:59:35;14.20;99.90
1405;DHT22;697;51.114;6.542;2023-10-31T16:02:05;14.10;99.90
1405;DHT22;697;51.114;6.542;2023-10-31T16:04:32;14.00;99.90
1405;DHT22;697;51.114;6.542;2023-10-31T16:06:58;14.00;99.90
1405;DHT22;697;51.114;6.542;2023-10-31T16:09:25;13.80;99.90
1405;DHT22;697;51.114;6.542;2023-10-31T16:11:52;13.80;99.90
1405;DHT22;697;51.114;6.542;2023-10-31T16:14:19;13.80;99.90
1405;DHT22;697;51.114;6.542;2023-10-31T16:16:48;13.80;99.90
1405;DHT22;697;51.114;6.542;2023-10-31T16:19:16;13.80;99.90